»·PEaware :: TEXAN16 KRND-KRND

TEXAN16 :: KRND-KRND

FLIGHT INFORMATION

Flight Status: Arrived
Operator: Unknown
More flights by this operator :: More flights under this callsign
Pilot: Indie I. (23337)
Aircraft: BEECH AIRCRAFT T-6A TEXAN
(TEX2)
More flights by this aircraft type
Origin: KRND Randolph AFB
United States
Destination: KRND Randolph AFB
United States
More flights between these airports :: More routes between these airports
Route: KRND KRND
File this flight plan on PilotEdge
Remarks: KRND 33L Rattler Transition
Altitude:
(Current/Filed)
11,000ft
Speed:
(Current/Filed)
200kts
Departed: 20-Aug-20 01:12 PM
Arrived: 20-Aug-20 01:52 PM
Distance/Time
Traveled:
2nm/0:40
Distance/Time
To Go:
Arrived

Flight Plot

Page will automatically refresh every two minutes.

Flight plan parsing failed; only flown route is shown


Map Options




Map Legend


Flown Route
Filed Route
Departure Airport
Arrival Airport
Navaid (VOR, NDB)
Fix

Horizontal Profiles

Position Reports

Time Latitude Longitude Heading Altitude Ground
Speed
20-Aug-20 12:51 29.534609 -98.292978 150 765ft 0kts
20-Aug-20 12:55 29.515614 -98.278347 149 765ft 0kts
20-Aug-20 13:02 29.516812 -98.279254 149 765ft 0kts
20-Aug-20 13:03 29.516810 -98.279253 149 765ft 0kts
20-Aug-20 13:05 29.516807 -98.279251 149 765ft 0kts
20-Aug-20 13:05 29.516805 -98.279250 149 765ft 0kts
20-Aug-20 13:06 29.515582 -98.278574 261 765ft 0kts
20-Aug-20 13:07 29.515688 -98.278812 305 765ft 0kts
20-Aug-20 13:09 29.515689 -98.278814 305 765ft 0kts
20-Aug-20 13:09 29.515691 -98.278816 305 765ft 0kts
20-Aug-20 13:10 29.515410 -98.279699 242 765ft 9kts
20-Aug-20 13:11 29.534226 -98.292635 329 1185ft 183kts
20-Aug-20 13:12 29.522100 -98.334348 156 1784ft 211kts
20-Aug-20 13:13 29.473223 -98.297880 147 1958ft 212kts
20-Aug-20 13:14 29.420061 -98.262117 158 3642ft 228kts
20-Aug-20 13:15 29.365133 -98.247227 220 6196ft 245kts
20-Aug-20 13:16 29.347459 -98.311775 246 9770ft 205kts
20-Aug-20 13:17 29.326470 -98.378382 253 10973ft 237kts
20-Aug-20 13:18 29.351126 -98.448288 295 11398ft 242kts
20-Aug-20 13:19 29.384561 -98.518344 298 11330ft 247kts
20-Aug-20 13:20 29.419789 -98.589149 299 10981ft 258kts
20-Aug-20 13:21 29.451988 -98.661369 294 10996ft 253kts
20-Aug-20 13:22 29.480568 -98.735089 293 11071ft 250kts
20-Aug-20 13:23 29.508565 -98.808741 293 11016ft 253kts
20-Aug-20 13:24 29.537137 -98.877688 295 13297ft 205kts
20-Aug-20 13:25 29.571566 -98.934712 338 15017ft 249kts
20-Aug-20 13:26 29.625429 -98.902946 63 15362ft 259kts
20-Aug-20 13:27 29.625429 -98.902946 63 15362ft 259kts
20-Aug-20 13:28 29.625929 -98.901694 65 15365ft 258kts
20-Aug-20 13:29 29.627159 -98.822009 61 13775ft 258kts
20-Aug-20 13:30 29.644777 -98.852946 258 13919ft 221kts
20-Aug-20 13:31 29.640226 -98.925604 273 11861ft 232kts
20-Aug-20 13:32 29.608618 -98.977923 177 9244ft 233kts
20-Aug-20 13:33 29.555928 -98.950730 95 6751ft 239kts
20-Aug-20 13:34 29.559558 -98.881432 80 4946ft 214kts
20-Aug-20 13:35 29.571671 -98.816553 74 3578ft 191kts
20-Aug-20 13:36 29.585210 -98.752107 76 3321ft 219kts
20-Aug-20 13:37 29.596199 -98.695003 82 3279ft 220kts
20-Aug-20 13:38 29.401807 -98.205357 330 3306ft 157kts
20-Aug-20 13:39 29.401807 -98.205357 330 3306ft 157kts
20-Aug-20 13:51 29.534788 -98.291903 184 765ft 0kts
20-Aug-20 13:52 29.534786 -98.291903 184 765ft 0kts
20-Aug-20 13:53 29.534784 -98.291903 184 765ft 0kts
20-Aug-20 13:54 29.534782 -98.291904 184 765ft 0kts
20-Aug-20 13:55 29.534713 -98.291920 201 765ft 5kts
20-Aug-20 13:56 29.530741 -98.290393 148 767ft 90kts
20-Aug-20 13:57 29.492708 -98.290977 241 1831ft 217kts
20-Aug-20 13:58 29.529088 -98.329039 329 1852ft 211kts
20-Aug-20 13:59 29.562712 -98.316003 111 1767ft 213kts
20-Aug-20 14:00 29.518577 -98.297263 298 1712ft 182kts
20-Aug-20 14:01 29.549606 -98.303446 111 1478ft 137kts
20-Aug-20 14:02 29.522398 -98.284849 150 912ft 144kts
20-Aug-20 14:03 29.497955 -98.308757 327 1791ft 218kts
20-Aug-20 14:04 29.550774 -98.344037 331 1725ft 223kts
20-Aug-20 14:05 29.546087 -98.300256 152 1789ft 214kts

Navigation Log

Ident Type
Flight plan parsing failed, navigation log unavailable